createdAt,value
2023-05-24T00:00:23.805Z,78.77
2023-05-24T00:02:51.220Z,78.91
2023-05-24T00:05:19.064Z,79.18
2023-05-24T00:07:46.345Z,79.50
2023-05-24T00:10:13.522Z,79.48
2023-05-24T00:12:40.829Z,79.67
2023-05-24T00:15:08.503Z,79.78
2023-05-24T00:17:41.456Z,79.45
2023-05-24T00:20:13.639Z,80.16
2023-05-24T00:22:41.970Z,80.14
2023-05-24T00:25:09.333Z,80.84
2023-05-24T00:27:37.582Z,81.73
2023-05-24T00:30:06.450Z,81.87
2023-05-24T00:32:33.718Z,82.31
2023-05-24T00:35:00.836Z,82.12
2023-05-24T00:37:29.750Z,82.34
2023-05-24T00:39:57.102Z,82.67
2023-05-24T00:42:24.420Z,82.58
2023-05-24T00:44:51.472Z,82.00
2023-05-24T00:47:19.491Z,82.43
2023-05-24T00:49:47.032Z,83.38
2023-05-24T00:52:14.456Z,83.99
2023-05-24T00:54:42.025Z,83.64
2023-05-24T00:57:09.333Z,83.33
2023-05-24T00:59:36.836Z,83.92
2023-05-24T01:02:05.322Z,84.24
2023-05-24T01:04:33.399Z,85.20
2023-05-24T01:07:23.737Z,85.28
2023-05-24T01:10:14.625Z,86.09
2023-05-24T01:13:10.837Z,86.57
2023-05-24T01:15:50.810Z,87.00
2023-05-24T01:18:26.538Z,86.96
2023-05-24T01:21:06.916Z,87.29
2023-05-24T01:23:36.909Z,87.52
2023-05-24T01:26:21.599Z,87.16
2023-05-24T01:28:49.352Z,86.97
2023-05-24T01:31:18.279Z,86.55
2023-05-24T01:33:45.579Z,86.25
2023-05-24T01:36:12.698Z,86.19
2023-05-24T01:38:41.440Z,86.40
2023-05-24T01:41:19.255Z,86.78
2023-05-24T01:43:59.985Z,86.97
2023-05-24T01:46:34.465Z,86.97
2023-05-24T01:49:26.461Z,86.83
2023-05-24T01:52:04.153Z,86.42
2023-05-24T01:54:35.095Z,86.67
2023-05-24T01:57:07.014Z,85.62
2023-05-24T01:59:36.444Z,85.76
2023-05-24T02:02:03.793Z,85.88
2023-05-24T02:04:31.572Z,85.98
2023-05-24T02:06:58.646Z,85.61
2023-05-24T02:09:25.732Z,85.66
2023-05-24T02:11:52.854Z,85.52
2023-05-24T02:14:20.751Z,85.65
2023-05-24T02:16:51.002Z,85.42
2023-05-24T02:19:19.657Z,85.66
2023-05-24T02:21:46.929Z,86.03
2023-05-24T02:24:15.168Z,86.42
2023-05-24T02:26:42.397Z,86.63
2023-05-24T02:29:09.668Z,86.65
2023-05-24T02:31:37.273Z,86.97
2023-05-24T02:34:04.459Z,87.23
2023-05-24T02:36:32.896Z,87.56
2023-05-24T02:39:00.020Z,87.60
2023-05-24T02:41:27.195Z,87.90
2023-05-24T02:43:54.502Z,88.00
2023-05-24T02:46:21.747Z,88.73
2023-05-24T02:48:49.977Z,88.82
2023-05-24T02:51:17.279Z,88.21
2023-05-24T02:53:45.608Z,88.54
2023-05-24T02:56:14.243Z,88.53
2023-05-24T02:58:41.940Z,88.25
2023-05-24T03:01:09.159Z,87.79
2023-05-24T03:03:36.735Z,87.70
2023-05-24T03:06:07.309Z,87.52
2023-05-24T03:08:35.072Z,87.95
2023-05-24T03:11:02.307Z,87.92
2023-05-24T03:13:29.663Z,88.07
2023-05-24T03:15:56.945Z,88.11
2023-05-24T03:18:24.171Z,87.79
2023-05-24T03:20:52.047Z,87.70
2023-05-24T03:23:19.251Z,87.46
2023-05-24T03:25:46.535Z,87.69
2023-05-24T03:28:15.369Z,87.45
2023-05-24T03:30:43.972Z,87.48
2023-05-24T03:33:11.368Z,87.67
2023-05-24T03:35:38.633Z,87.50
2023-05-24T03:38:06.041Z,87.57
2023-05-24T03:40:34.854Z,87.78
2023-05-24T03:43:05.126Z,87.92
2023-05-24T03:45:42.501Z,87.62
2023-05-24T03:48:09.867Z,87.73
2023-05-24T03:50:37.109Z,87.88
2023-05-24T03:53:04.240Z,87.89
2023-05-24T03:55:31.554Z,88.01
2023-05-24T03:57:58.784Z,87.77
2023-05-24T04:00:26.365Z,87.93
2023-05-24T04:02:54.182Z,88.08
2023-05-24T04:05:22.504Z,87.97
2023-05-24T04:07:49.849Z,87.89
2023-05-24T04:10:19.089Z,87.76
2023-05-24T04:12:46.351Z,87.73
2023-05-24T04:15:16.479Z,87.73
2023-05-24T04:17:45.063Z,87.52
2023-05-24T04:20:13.388Z,87.95
2023-05-24T04:22:41.076Z,87.66
2023-05-24T04:25:10.316Z,87.78
2023-05-24T04:27:37.679Z,87.77
2023-05-24T04:30:05.889Z,87.56
2023-05-24T04:32:33.098Z,87.70
2023-05-24T04:35:03.086Z,87.57
2023-05-24T04:37:32.073Z,87.30
2023-05-24T04:39:59.299Z,87.63
2023-05-24T04:42:27.658Z,87.90
2023-05-24T04:44:54.797Z,88.17
2023-05-24T04:47:21.983Z,87.86
2023-05-24T04:49:49.556Z,88.18
2023-05-24T04:52:17.502Z,88.24
2023-05-24T04:54:44.954Z,87.97
2023-05-24T04:57:12.132Z,87.83
2023-05-24T04:59:39.226Z,87.58
2023-05-24T05:02:06.488Z,87.74
2023-05-24T05:04:33.784Z,87.29
2023-05-24T05:07:01.085Z,87.68
2023-05-24T05:09:28.515Z,87.59
2023-05-24T05:11:55.874Z,87.68
2023-05-24T05:14:23.053Z,87.39
2023-05-24T05:16:50.370Z,87.62
2023-05-24T05:19:17.579Z,87.74
2023-05-24T05:21:44.825Z,87.70
2023-05-24T05:24:12.129Z,87.76
2023-05-24T05:26:39.334Z,87.83
2023-05-24T05:29:06.636Z,87.37
2023-05-24T05:31:33.898Z,87.26
2023-05-24T05:34:01.162Z,87.26
2023-05-24T05:36:28.403Z,87.07
2023-05-24T05:38:55.631Z,87.03
2023-05-24T05:41:22.781Z,86.66
2023-05-24T05:43:49.935Z,86.99
2023-05-24T05:46:17.225Z,87.21
2023-05-24T05:48:46.316Z,86.88
2023-05-24T05:51:14.229Z,86.78
2023-05-24T05:53:41.435Z,86.73
2023-05-24T05:56:08.593Z,86.82
2023-05-24T05:58:35.915Z,86.75
2023-05-24T06:01:03.129Z,86.76
2023-05-24T06:03:30.447Z,86.62
2023-05-24T06:05:57.711Z,86.45
2023-05-24T06:08:24.850Z,86.74
2023-05-24T06:10:53.123Z,86.41
2023-05-24T06:13:20.375Z,86.18
2023-05-24T06:15:47.716Z,86.16
2023-05-24T06:18:15.748Z,85.97
2023-05-24T06:20:45.299Z,86.08
2023-05-24T06:23:13.010Z,85.79
2023-05-24T06:25:40.776Z,85.79
2023-05-24T06:28:07.939Z,85.27
2023-05-24T06:30:35.369Z,85.12
2023-05-24T06:33:02.841Z,84.89
2023-05-24T06:35:30.058Z,84.87
2023-05-24T06:37:58.172Z,84.80
2023-05-24T06:40:25.362Z,84.58
2023-05-24T06:42:52.510Z,84.70
2023-05-24T06:45:19.677Z,84.69
2023-05-24T06:47:47.303Z,84.34
2023-05-24T06:50:14.712Z,84.21
2023-05-24T06:52:42.024Z,84.39
2023-05-24T06:55:09.988Z,84.07
2023-05-24T06:57:37.087Z,84.45
2023-05-24T07:00:10.155Z,84.39
2023-05-24T07:02:37.448Z,84.16
2023-05-24T07:05:05.453Z,83.88
2023-05-24T07:07:32.805Z,83.96
2023-05-24T07:09:59.899Z,84.26
2023-05-24T07:12:27.131Z,84.40
2023-05-24T07:14:58.618Z,84.60
2023-05-24T07:17:25.840Z,84.68
2023-05-24T07:19:53.093Z,84.13
2023-05-24T07:22:20.321Z,83.91
2023-05-24T07:24:47.469Z,83.80
2023-05-24T07:27:14.567Z,83.96
2023-05-24T07:29:42.002Z,83.90
2023-05-24T07:32:09.258Z,83.77
2023-05-24T07:34:36.469Z,83.97
2023-05-24T07:37:03.703Z,84.36
2023-05-24T07:39:30.887Z,84.35
2023-05-24T07:41:58.188Z,84.21
2023-05-24T07:44:25.346Z,84.07
2023-05-24T07:46:52.664Z,84.23
2023-05-24T07:49:19.832Z,84.40
2023-05-24T07:51:47.010Z,84.30
2023-05-24T07:54:14.203Z,83.97
2023-05-24T07:56:42.987Z,84.20
2023-05-24T07:59:10.256Z,84.52
2023-05-24T08:01:38.176Z,84.77
2023-05-24T08:04:05.685Z,84.83
2023-05-24T08:06:35.847Z,85.29
2023-05-24T08:09:04.675Z,85.46
2023-05-24T08:11:31.782Z,85.84
2023-05-24T08:13:58.907Z,85.62
2023-05-24T08:16:26.312Z,86.19
2023-05-24T08:18:55.092Z,86.40
2023-05-24T08:21:22.794Z,86.42
2023-05-24T08:23:49.957Z,86.62
2023-05-24T08:26:19.417Z,86.70
2023-05-24T08:28:46.749Z,86.79
2023-05-24T08:31:14.021Z,86.85
2023-05-24T08:33:41.544Z,87.52
2023-05-24T08:36:08.918Z,87.78
2023-05-24T08:38:36.390Z,88.15
2023-05-24T08:41:07.636Z,88.00
2023-05-24T08:43:35.594Z,88.28
2023-05-24T08:46:04.152Z,88.84
2023-05-24T08:48:31.842Z,89.28
2023-05-24T08:50:59.659Z,89.84
2023-05-24T08:53:27.623Z,90.21
2023-05-24T08:55:56.357Z,90.27
2023-05-24T08:58:23.682Z,90.20
2023-05-24T09:00:50.948Z,90.82
2023-05-24T09:03:18.989Z,92.01
2023-05-24T09:05:46.529Z,91.74
2023-05-24T09:08:18.311Z,91.75
2023-05-24T09:13:20.411Z,92.25
2023-05-24T09:15:47.603Z,91.67
2023-05-24T09:18:14.971Z,92.06
2023-05-24T09:20:42.320Z,92.75
2023-05-24T09:23:11.074Z,92.76
2023-05-24T09:25:44.671Z,92.40
2023-05-24T09:28:15.036Z,92.63
2023-05-24T09:30:47.073Z,92.61
2023-05-24T09:33:14.292Z,91.78
2023-05-24T09:35:44.788Z,91.43
2023-05-24T09:38:21.005Z,91.43
2023-05-24T09:40:48.290Z,91.47
2023-05-24T09:43:15.473Z,91.70
2023-05-24T09:45:47.317Z,91.72
2023-05-24T09:48:20.521Z,91.64
2023-05-24T09:51:01.485Z,90.88
2023-05-24T09:53:28.938Z,91.39
2023-05-24T09:55:56.349Z,91.48
2023-05-24T09:58:23.594Z,91.76
2023-05-24T10:00:51.248Z,91.70
2023-05-24T10:03:18.441Z,91.41
2023-05-24T10:05:47.105Z,91.25
2023-05-24T10:08:14.771Z,91.42
2023-05-24T10:10:42.720Z,91.80
2023-05-24T10:13:10.713Z,91.61
2023-05-24T10:15:38.758Z,91.46
2023-05-24T10:18:10.643Z,91.51
2023-05-24T10:20:41.976Z,91.26
2023-05-24T10:23:11.368Z,91.30
2023-05-24T10:25:42.286Z,91.28
2023-05-24T10:28:13.068Z,91.80
2023-05-24T10:31:02.720Z,91.75
2023-05-24T10:33:32.872Z,90.88
2023-05-24T10:36:00.166Z,91.04
2023-05-24T10:38:27.364Z,91.00
2023-05-24T10:40:54.484Z,90.91
2023-05-24T10:43:22.370Z,91.27
2023-05-24T10:45:50.864Z,90.77
2023-05-24T10:48:23.899Z,89.68
2023-05-24T10:50:51.444Z,89.04
2023-05-24T10:53:20.654Z,88.84
2023-05-24T10:56:01.489Z,88.96
2023-05-24T10:58:44.026Z,89.05
2023-05-24T11:01:25.253Z,89.18
2023-05-24T11:03:52.563Z,88.34
2023-05-24T11:06:20.053Z,88.68
2023-05-24T11:08:47.218Z,87.75
2023-05-24T11:11:26.516Z,87.12
2023-05-24T11:13:58.155Z,87.04
2023-05-24T11:16:40.364Z,87.41
2023-05-24T11:19:22.344Z,88.17
2023-05-24T11:21:51.649Z,87.62
2023-05-24T11:24:20.067Z,87.00
2023-05-24T11:26:47.436Z,86.45
2023-05-24T11:29:18.092Z,86.75
2023-05-24T11:31:50.975Z,86.89
2023-05-24T11:34:19.043Z,86.97
2023-05-24T11:36:47.661Z,86.17
2023-05-24T11:39:15.369Z,86.41
2023-05-24T11:41:42.844Z,86.31
2023-05-24T11:44:11.800Z,86.39
2023-05-24T11:46:39.777Z,85.35
2023-05-24T11:49:07.316Z,85.37
2023-05-24T11:51:36.086Z,84.67
2023-05-24T11:54:04.717Z,84.95
2023-05-24T11:56:33.884Z,85.01
2023-05-24T11:59:16.158Z,84.80
2023-05-24T12:01:44.143Z,84.63
2023-05-24T12:04:12.246Z,84.23
2023-05-24T12:06:44.611Z,84.09
2023-05-24T12:09:18.263Z,84.11
2023-05-24T12:11:48.387Z,83.46
2023-05-24T12:14:18.028Z,83.25
2023-05-24T12:16:46.926Z,83.23
2023-05-24T12:19:31.623Z,83.69
2023-05-24T12:21:59.551Z,83.10
2023-05-24T12:24:27.884Z,83.98
2023-05-24T12:27:02.183Z,83.88
2023-05-24T12:29:41.720Z,84.34
2023-05-24T12:32:14.056Z,83.23
2023-05-24T12:34:45.447Z,82.56
2023-05-24T12:37:14.024Z,82.90
2023-05-24T12:39:43.881Z,83.14
2023-05-24T12:42:12.784Z,83.20
2023-05-24T12:44:40.260Z,83.05
2023-05-24T12:47:09.003Z,83.31
2023-05-24T12:49:36.994Z,83.49
2023-05-24T12:52:04.290Z,84.25
2023-05-24T12:54:31.914Z,83.97
2023-05-24T12:57:05.699Z,84.50
2023-05-24T12:59:34.180Z,84.85
2023-05-24T13:02:02.463Z,85.32
2023-05-24T13:04:31.984Z,85.28
2023-05-24T13:06:59.470Z,85.10
2023-05-24T13:09:27.283Z,84.46
2023-05-24T13:11:55.844Z,84.47
2023-05-24T13:14:23.497Z,84.72
2023-05-24T13:16:51.023Z,85.14
2023-05-24T13:19:18.896Z,84.76
2023-05-24T13:21:46.402Z,84.25
2023-05-24T13:24:16.568Z,84.75
2023-05-24T13:26:44.003Z,84.60
2023-05-24T13:31:42.059Z,83.44
2023-05-24T13:34:11.484Z,83.09
2023-05-24T13:36:39.563Z,82.75
2023-05-24T13:41:40.888Z,82.79
2023-05-24T13:44:08.126Z,83.13
2023-05-24T13:46:36.727Z,83.65
2023-05-24T13:49:04.741Z,83.69
2023-05-24T13:51:32.108Z,83.78
2023-05-24T13:53:59.865Z,83.99
2023-05-24T13:56:33.082Z,83.73
2023-05-24T13:59:03.004Z,84.56
2023-05-24T14:01:30.937Z,85.14
2023-05-24T14:03:58.272Z,84.82
2023-05-24T14:06:25.599Z,84.88
2023-05-24T14:08:53.626Z,84.62
2023-05-24T14:11:20.910Z,84.99
2023-05-24T14:16:19.765Z,84.37
2023-05-24T14:18:49.360Z,84.19
2023-05-24T14:21:19.110Z,83.97
2023-05-24T14:23:46.323Z,84.39
2023-05-24T14:26:13.786Z,84.78
2023-05-24T14:28:41.377Z,84.67
2023-05-24T14:31:08.740Z,85.00
2023-05-24T14:33:35.950Z,85.12
2023-05-24T14:36:03.162Z,85.05
2023-05-24T14:38:30.652Z,85.13
2023-05-24T14:40:59.070Z,85.19
2023-05-24T14:43:26.583Z,84.62
2023-05-24T14:45:53.953Z,85.04
2023-05-24T14:48:21.300Z,84.40
2023-05-24T14:50:48.681Z,83.71
2023-05-24T14:53:16.011Z,83.54
2023-05-24T14:55:44.378Z,83.89
2023-05-24T14:58:12.462Z,84.28
2023-05-24T15:00:41.020Z,84.16
2023-05-24T15:03:09.230Z,84.65
2023-05-24T15:05:37.086Z,85.15
2023-05-24T15:08:05.805Z,84.63
2023-05-24T15:10:33.646Z,84.52
2023-05-24T15:13:01.761Z,84.31
2023-05-24T15:15:29.041Z,84.66
2023-05-24T15:17:57.883Z,85.43
2023-05-24T15:20:26.014Z,85.19
2023-05-24T15:22:53.474Z,85.60
2023-05-24T15:25:21.173Z,85.70
2023-05-24T15:27:48.847Z,85.57
2023-05-24T15:30:17.753Z,85.68
2023-05-24T15:32:46.819Z,85.82
2023-05-24T15:35:14.444Z,86.50
2023-05-24T15:37:43.069Z,86.60
2023-05-24T15:40:11.248Z,86.59
2023-05-24T15:42:38.549Z,86.01
2023-05-24T15:45:07.564Z,86.35
2023-05-24T15:47:40.207Z,86.71
2023-05-24T15:50:08.724Z,86.32
2023-05-24T15:52:36.804Z,86.58
2023-05-24T15:55:04.368Z,86.81
2023-05-24T15:57:32.327Z,86.76
2023-05-24T15:59:59.614Z,86.63
2023-05-24T16:02:27.327Z,86.95
2023-05-24T16:04:55.729Z,86.86
2023-05-24T16:07:23.326Z,86.93
2023-05-24T16:09:51.143Z,87.03
2023-05-24T16:12:18.837Z,87.02
2023-05-24T16:14:46.519Z,87.75
2023-05-24T16:17:15.257Z,87.49
2023-05-24T16:19:42.561Z,87.91
2023-05-24T16:22:09.686Z,87.93
2023-05-24T16:24:36.959Z,87.97
2023-05-24T16:27:04.402Z,88.10
2023-05-24T16:29:31.651Z,88.17
2023-05-24T16:31:59.143Z,87.76
2023-05-24T16:34:26.643Z,88.11
2023-05-24T16:36:54.283Z,87.83
2023-05-24T16:39:21.757Z,87.93
2023-05-24T16:41:48.943Z,87.69
2023-05-24T16:44:19.260Z,87.30
2023-05-24T16:46:47.214Z,87.54
2023-05-24T16:49:14.604Z,87.35
2023-05-24T16:51:41.827Z,87.30
2023-05-24T16:54:09.489Z,87.72
2023-05-24T16:56:38.265Z,87.81
2023-05-24T16:59:05.779Z,87.74
2023-05-24T17:01:33.426Z,87.54
2023-05-24T17:04:00.817Z,87.65
2023-05-24T17:06:28.139Z,87.81
2023-05-24T17:08:55.675Z,87.86
2023-05-24T17:11:23.403Z,88.25
2023-05-24T17:13:51.791Z,88.10
2023-05-24T17:16:19.526Z,88.06
2023-05-24T17:18:46.855Z,88.18
2023-05-24T17:21:14.167Z,88.44
2023-05-24T17:23:41.680Z,88.33
2023-05-24T17:26:09.842Z,88.29
2023-05-24T17:28:37.382Z,88.26
2023-05-24T17:31:04.746Z,88.85
2023-05-24T17:33:32.557Z,89.05
2023-05-24T17:36:04.523Z,88.88
2023-05-24T17:38:37.687Z,88.88
2023-05-24T17:41:07.647Z,88.93
2023-05-24T17:43:35.262Z,88.78
2023-05-24T17:46:04.195Z,89.08
2023-05-24T17:48:35.501Z,88.97
2023-05-24T17:51:05.318Z,88.98
2023-05-24T17:53:35.003Z,88.87
2023-05-24T17:56:03.625Z,88.99
2023-05-24T17:58:31.174Z,89.33
2023-05-24T18:00:58.594Z,89.50
2023-05-24T18:03:25.880Z,89.49
2023-05-24T18:05:53.075Z,89.48
2023-05-24T18:08:20.392Z,89.71
2023-05-24T18:10:47.633Z,89.85
2023-05-24T18:13:14.962Z,89.94
2023-05-24T18:15:42.484Z,89.90
2023-05-24T18:18:10.041Z,90.38
2023-05-24T18:20:37.313Z,90.07
2023-05-24T18:23:04.533Z,90.10
2023-05-24T18:25:31.865Z,90.40
2023-05-24T18:27:59.224Z,90.31
2023-05-24T18:30:26.456Z,90.45
2023-05-24T18:33:05.544Z,90.62
2023-05-24T18:35:35.377Z,90.81
2023-05-24T18:38:03.664Z,91.28
2023-05-24T18:40:30.927Z,91.34
2023-05-24T18:42:58.012Z,91.24
2023-05-24T18:45:25.155Z,91.27
2023-05-24T18:47:54.314Z,91.21
2023-05-24T18:50:23.500Z,91.35
2023-05-24T18:52:50.822Z,91.30
2023-05-24T18:55:18.141Z,91.18
2023-05-24T18:57:45.385Z,91.23
2023-05-24T19:00:13.260Z,91.53
2023-05-24T19:02:41.115Z,91.96
2023-05-24T19:05:09.198Z,91.65
2023-05-24T19:07:37.140Z,92.09
2023-05-24T19:10:04.697Z,92.40
2023-05-24T19:12:32.115Z,92.63
2023-05-24T19:14:59.881Z,92.26
2023-05-24T19:17:27.185Z,92.84
2023-05-24T19:19:54.829Z,92.50
2023-05-24T19:22:22.165Z,92.63
2023-05-24T19:24:49.373Z,92.35
2023-05-24T19:27:16.577Z,92.74
2023-05-24T19:29:43.798Z,92.55
2023-05-24T19:32:11.849Z,92.78
2023-05-24T19:34:42.566Z,92.79
2023-05-24T19:37:10.190Z,93.07
2023-05-24T19:39:37.903Z,92.72
2023-05-24T19:42:05.288Z,92.92
2023-05-24T19:44:32.494Z,93.42
2023-05-24T19:46:59.682Z,93.39
2023-05-24T19:49:26.950Z,93.45
2023-05-24T19:51:54.168Z,93.67
2023-05-24T19:54:21.746Z,93.65
2023-05-24T19:56:50.925Z,93.53
2023-05-24T19:59:18.821Z,93.86
2023-05-24T20:01:46.060Z,93.31
2023-05-24T20:04:13.611Z,93.70
2023-05-24T20:06:40.981Z,93.92
2023-05-24T20:09:08.900Z,93.66
2023-05-24T20:11:36.121Z,94.15
2023-05-24T20:14:03.605Z,93.94
2023-05-24T20:16:31.646Z,94.31
2023-05-24T20:18:58.820Z,93.94
2023-05-24T20:21:26.079Z,94.11
2023-05-24T20:23:58.677Z,93.91
2023-05-24T20:26:26.634Z,94.07
2023-05-24T20:28:53.929Z,94.03
2023-05-24T20:31:21.158Z,93.72
2023-05-24T20:33:51.683Z,93.71
2023-05-24T20:36:18.762Z,94.24
2023-05-24T20:38:46.022Z,94.01
2023-05-24T20:41:13.096Z,93.93
2023-05-24T20:43:40.260Z,94.54
2023-05-24T20:46:07.476Z,94.60
2023-05-24T20:48:34.946Z,94.51
2023-05-24T20:51:02.272Z,94.76
2023-05-24T20:53:29.561Z,95.42
2023-05-24T20:55:57.512Z,95.50
2023-05-24T20:58:24.927Z,95.74
2023-05-24T21:00:52.312Z,95.14
2023-05-24T21:03:19.843Z,95.28
2023-05-24T21:05:47.271Z,95.43
2023-05-24T21:08:14.555Z,95.24
2023-05-24T21:10:41.718Z,95.67
2023-05-24T21:13:09.024Z,96.28
2023-05-24T21:15:36.355Z,96.50
2023-05-24T21:18:04.164Z,96.21
2023-05-24T21:20:31.584Z,96.25
2023-05-24T21:22:58.888Z,96.17
2023-05-24T21:25:26.112Z,96.35
2023-05-24T21:27:53.330Z,96.76
2023-05-24T21:30:20.698Z,96.38
2023-05-24T21:32:47.927Z,97.28
2023-05-24T21:35:15.197Z,96.77
2023-05-24T21:37:42.490Z,96.95
2023-05-24T21:40:10.152Z,97.09
2023-05-24T21:42:37.538Z,97.14
2023-05-24T21:45:05.039Z,97.09
2023-05-24T21:47:33.344Z,97.37
2023-05-24T21:50:00.656Z,97.15
2023-05-24T21:52:27.998Z,97.55
2023-05-24T21:54:55.692Z,97.00
2023-05-24T21:57:25.518Z,97.34
2023-05-24T21:59:53.509Z,97.32
2023-05-24T22:02:21.826Z,97.52
2023-05-24T22:04:49.302Z,97.41
2023-05-24T22:07:16.434Z,97.16
2023-05-24T22:09:43.720Z,97.04
2023-05-24T22:12:11.253Z,96.76
2023-05-24T22:14:38.501Z,96.61
2023-05-24T22:17:05.907Z,96.97
2023-05-24T22:22:03.408Z,97.05
2023-05-24T22:24:31.084Z,96.58
2023-05-24T22:26:58.317Z,96.74
2023-05-24T22:29:25.501Z,96.69
2023-05-24T22:31:52.825Z,96.68
2023-05-24T22:34:27.631Z,96.86
2023-05-24T22:36:55.375Z,96.41
2023-05-24T22:39:22.583Z,96.54
2023-05-24T22:41:51.844Z,96.98
2023-05-24T22:44:19.344Z,96.98
2023-05-24T22:46:49.962Z,96.46
2023-05-24T22:49:19.792Z,96.76
2023-05-24T22:51:48.558Z,96.69
2023-05-24T22:54:15.966Z,96.29
2023-05-24T22:56:43.945Z,96.15
2023-05-24T22:59:11.472Z,96.59
2023-05-24T23:01:39.161Z,96.99
2023-05-24T23:04:19.540Z,96.87
2023-05-24T23:06:47.748Z,96.30
2023-05-24T23:09:15.000Z,96.61
2023-05-24T23:11:43.135Z,96.54
2023-05-24T23:14:11.545Z,96.59
2023-05-24T23:16:46.159Z,96.55
2023-05-24T23:19:18.723Z,96.90
2023-05-24T23:21:46.403Z,96.87
2023-05-24T23:24:16.098Z,97.00
2023-05-24T23:26:43.874Z,96.38
2023-05-24T23:29:11.064Z,97.22
2023-05-24T23:31:38.548Z,96.38
2023-05-24T23:34:05.981Z,96.20
2023-05-24T23:36:33.745Z,97.02
2023-05-24T23:39:00.969Z,96.57
2023-05-24T23:41:28.143Z,96.84
2023-05-24T23:43:55.570Z,97.10
2023-05-24T23:46:22.770Z,96.85
2023-05-24T23:48:50.025Z,96.90
2023-05-24T23:51:17.267Z,97.00
2023-05-24T23:53:44.403Z,96.29
2023-05-24T23:56:11.943Z,97.06
2023-05-24T23:58:39.030Z,97.12
